James Davison — WDF9427 — position and weather

sailwx.info

Track history (hours):
 
Tides and Currents Weather Stations Pressure Air Temp Water Temp Dewpoint Dewpoint Depression Visibility Wind Speed Wind Dir Waves Ship Positions

James Davison

Owner: Genesis Marine, LLC, Houston, TX. More information available from US FCC via Universal Licensing System and Coast Guard Vessel Documentation Center.

Last reported at 2018-Feb-25 23:42 UTC. Time now 2018-Feb-26 01:58 UTC.
Position N 29°47' W 095°04'.

Length 26 m; draft 3 m.

Type: Other ship. MMSI: 367505050.

Date/timePositionNaut miles runAvg speedWind from/ knotsBaromVisibWave heightAir tempDewpointWater temp
2018-Feb-25 23:42N 29°47' W 095°04'2 1.2
2018-Feb-25 22:20N 29°46' W 095°05'1 0.3
2018-Feb-25 19:53N 29°46' W 095°06'2 1.0
2018-Feb-25 17:28N 29°44' W 095°03'2 5.2
2018-Feb-25 16:59N 29°43' W 095°01'3 5.6
2018-Feb-25 16:30N 29°41' W 094°59'4 7.1
2018-Feb-25 16:01N 29°38' W 094°58'4 7.5
2018-Feb-25 15:30N 29°34' W 094°56'4 7.4
2018-Feb-25 15:00N 29°31' W 094°53'25 1.8
2018-Feb-25 00:38N 29°36' W 094°24'6 1.8
2018-Feb-24 21:33N 29°38' W 094°19'0 0.3
2018-Feb-24 21:28N 29°38' W 094°19'0 0.1
2018-Feb-24 21:00N 29°38' W 094°18'0 0.2
2018-Feb-24 20:30N 29°38' W 094°18'1 1.5
2018-Feb-24 20:00N 29°38' W 094°18'0 0.1
2018-Feb-24 18:23N 29°38' W 094°17'1 2.8
2018-Feb-24 17:58N 29°39' W 094°16'1 0.9
2018-Feb-24 17:20N 29°39' W 094°16'0 0.0
2018-Feb-24 16:59N 29°39' W 094°16'2 3.5
2018-Feb-24 16:29N 29°40' W 094°14'3 5.7
2018-Feb-24 16:00N 29°41' W 094°11'3 5.3
2018-Feb-24 15:30N 29°42' W 094°08'3 5.7
2018-Feb-24 15:00N 29°44' W 094°06'3 5.7
2018-Feb-24 14:30N 29°46' W 094°03'3 5.7
2018-Feb-24 14:00N 29°48' W 094°01'2 4.9
2018-Feb-24 13:30N 29°49' W 093°59'1 2.1
2018-Feb-24 13:00N 29°50' W 093°58'1 1.0
2018-Feb-24 12:30N 29°51' W 093°58'0 0.1
2018-Feb-24 12:00N 29°51' W 093°58'0 0.1
2018-Feb-24 11:30N 29°51' W 093°58'0 0.0
2018-Feb-24 11:00N 29°51' W 093°58'0 0.0
2018-Feb-24 10:30N 29°51' W 093°58'0 0.0
2018-Feb-24 10:00N 29°51' W 093°58'0 0.0
2018-Feb-24 09:30N 29°51' W 093°58'0 0.0
2018-Feb-24 09:00N 29°51' W 093°58'0 0.0
2018-Feb-24 08:30N 29°51' W 093°58'0 0.0
2018-Feb-24 08:00N 29°51' W 093°58'0 0.0
2018-Feb-24 07:30N 29°51' W 093°58'0 0.0
2018-Feb-24 07:00N 29°51' W 093°58'0 0.0
2018-Feb-24 06:30N 29°51' W 093°58'0 0.0
2018-Feb-24 06:00N 29°51' W 093°58'0 0.0
2018-Feb-24 05:30N 29°51' W 093°58'0 0.0
2018-Feb-24 05:00N 29°51' W 093°58'0 0.0
2018-Feb-24 04:30N 29°51' W 093°58'0 0.0
2018-Feb-24 04:00N 29°51' W 093°58'0 0.0
2018-Feb-24 03:30N 29°51' W 093°58'0 0.0
2018-Feb-24 03:00N 29°51' W 093°58'0 0.0
2018-Feb-24 02:30N 29°51' W 093°58'0 0.0
2018-Feb-24 01:56N 29°51' W 093°58'0 0.0
2018-Feb-24 01:30N 29°51' W 093°58'0 0.0
2018-Feb-24 01:00N 29°51' W 093°58'0 0.0
2018-Feb-24 00:29N 29°51' W 093°58'0 0.0
2018-Feb-24 00:00N 29°51' W 093°58'0 0.0
2018-Feb-23 23:30N 29°51' W 093°58'0 0.0
2018-Feb-23 23:00N 29°51' W 093°58'0 0.0
2018-Feb-23 22:30N 29°51' W 093°58'0 0.0
2018-Feb-23 22:00N 29°51' W 093°58'0 0.0
2018-Feb-23 21:30N 29°51' W 093°58'0 0.0
2018-Feb-23 21:00N 29°51' W 093°58'0 0.0
2018-Feb-23 20:30N 29°51' W 093°58'0 0.0
2018-Feb-23 20:00N 29°51' W 093°58'0 0.0
2018-Feb-23 19:30N 29°51' W 093°58'0 0.0
2018-Feb-23 19:00N 29°51' W 093°58'0 0.0
2018-Feb-23 18:29N 29°51' W 093°58'0 0.0
2018-Feb-23 18:00N 29°51' W 093°58'0 0.0
2018-Feb-23 17:30N 29°51' W 093°58'0 0.0
2018-Feb-23 17:00N 29°51' W 093°58'0 0.0
2018-Feb-23 16:30N 29°51' W 093°58'0 0.0
2018-Feb-23 16:00N 29°51' W 093°58'0 0.0
2018-Feb-23 15:30N 29°51' W 093°58'0 0.0
2018-Feb-23 15:00N 29°51' W 093°58'0 0.0
2018-Feb-23 14:30N 29°51' W 093°58'0 0.0
2018-Feb-23 14:00N 29°51' W 093°58'0 0.0
2018-Feb-23 13:30N 29°51' W 093°58'0 0.0
2018-Feb-23 13:00N 29°51' W 093°58'0 0.0
2018-Feb-23 12:30N 29°51' W 093°58'0 0.0
2018-Feb-23 12:00N 29°51' W 093°58'0 0.0
2018-Feb-23 11:30N 29°51' W 093°58'0 0.0
2018-Feb-23 11:00N 29°51' W 093°58'0 0.0
2018-Feb-23 10:30N 29°51' W 093°58'0 0.0
2018-Feb-23 10:00N 29°51' W 093°58'0 0.0
2018-Feb-23 09:30N 29°51' W 093°58'0 0.0
2018-Feb-23 09:00N 29°51' W 093°58'0 0.0
2018-Feb-23 08:30N 29°51' W 093°58'0 0.0
2018-Feb-23 08:00N 29°51' W 093°58'0 0.0
2018-Feb-23 07:30N 29°51' W 093°58'0 0.0
2018-Feb-23 07:00N 29°51' W 093°58'0 0.0
2018-Feb-23 06:30N 29°51' W 093°58'0 0.0
2018-Feb-23 06:00N 29°51' W 093°58'0 0.0
2018-Feb-23 05:30N 29°51' W 093°58'0 0.0
2018-Feb-23 05:00N 29°51' W 093°58'0 0.0
2018-Feb-23 04:30N 29°51' W 093°58'0 0.0
2018-Feb-23 04:00N 29°51' W 093°58'0 0.0
2018-Feb-23 03:30N 29°51' W 093°58'0 0.0
2018-Feb-23 03:00N 29°51' W 093°58'0 0.0
2018-Feb-23 02:30N 29°51' W 093°58'0 0.0
2018-Feb-23 02:00N 29°51' W 093°58'0 0.0
2018-Feb-23 01:30N 29°51' W 093°58'0 0.0
2018-Feb-23 01:00N 29°51' W 093°58'0 0.0
2018-Feb-23 00:30N 29°51' W 093°58'0 0.0
2018-Feb-23 00:00N 29°51' W 093°58'0 0.0
2018-Feb-22 23:30N 29°51' W 093°58'0 0.0
2018-Feb-22 23:00N 29°51' W 093°58'0 0.0
2018-Feb-22 22:30N 29°51' W 093°58'0 0.0
2018-Feb-22 22:00N 29°51' W 093°58'0 0.0
2018-Feb-22 21:30N 29°51' W 093°58'0 0.0
2018-Feb-22 21:00N 29°51' W 093°58'0 0.0
2018-Feb-22 20:30N 29°51' W 093°58'0 0.0
2018-Feb-22 20:00N 29°51' W 093°58'0 0.0
2018-Feb-22 19:30N 29°51' W 093°58'0 0.0
2018-Feb-22 19:00N 29°51' W 093°58'0 0.0
2018-Feb-22 18:30N 29°51' W 093°58'0 0.0
2018-Feb-22 18:00N 29°51' W 093°58'0 0.0
2018-Feb-22 17:30N 29°51' W 093°58'0 0.0
2018-Feb-22 17:00N 29°51' W 093°58'0 0.0
2018-Feb-22 16:30N 29°51' W 093°58'0 0.0
2018-Feb-22 16:00N 29°51' W 093°58'0 0.0
2018-Feb-22 15:30N 29°51' W 093°58'0 0.0
2018-Feb-22 15:00N 29°51' W 093°58'0 0.0
2018-Feb-22 14:30N 29°51' W 093°58'1 2.5
2018-Feb-22 14:01N 29°49' W 093°58'1 1.7
2018-Feb-22 13:28N 29°49' W 093°59'0 0.0
2018-Feb-22 13:00N 29°49' W 093°59'0 0.0
2018-Feb-22 12:30N 29°49' W 093°59'0 0.0
2018-Feb-22 12:00N 29°49' W 093°59'0 0.0
2018-Feb-22 11:30N 29°49' W 093°59'0 0.0
2018-Feb-22 11:00N 29°49' W 093°59'0 0.0
2018-Feb-22 10:30N 29°49' W 093°59'0 0.0
2018-Feb-22 10:00N 29°49' W 093°59'0 0.0
2018-Feb-22 09:29N 29°49' W 093°59'0 0.0
2018-Feb-22 09:00N 29°49' W 093°59'0 0.0
2018-Feb-22 08:30N 29°49' W 093°59'0 0.0
2018-Feb-22 08:00N 29°49' W 093°59'0 0.0
2018-Feb-22 07:30N 29°49' W 093°59'0 0.0
2018-Feb-22 07:00N 29°49' W 093°59'0 0.0
2018-Feb-22 06:30N 29°49' W 093°59'0 0.0
2018-Feb-22 06:00N 29°49' W 093°59'0 0.0
2018-Feb-22 05:30N 29°49' W 093°59'0 0.0
2018-Feb-22 05:00N 29°49' W 093°59'0 0.0
2018-Feb-22 04:30N 29°49' W 093°59'0 0.0
2018-Feb-22 04:00N 29°49' W 093°59'0 0.0
2018-Feb-22 03:30N 29°49' W 093°59'0 0.0
2018-Feb-22 03:00N 29°49' W 093°59'0 0.0
2018-Feb-22 02:28N 29°49' W 093°59'0 0.0
2018-Feb-22 02:00N 29°49' W 093°59'0 0.0
2018-Feb-22 01:30N 29°49' W 093°59'0 0.0
2018-Feb-22 00:59N 29°49' W 093°59'0 0.0
2018-Feb-22 00:30N 29°49' W 093°59'0 0.0
2018-Feb-22 00:00N 29°49' W 093°59'0 0.0
2018-Feb-21 23:30N 29°49' W 093°59'0 0.0
2018-Feb-21 23:00N 29°49' W 093°59'0 0.0
2018-Feb-21 22:29N 29°49' W 093°59'0 0.0
2018-Feb-21 22:00N 29°49' W 093°59'0 0.0
2018-Feb-21 21:30N 29°49' W 093°59'0 0.0
2018-Feb-21 21:00N 29°49' W 093°59'0 0.0
2018-Feb-21 20:30N 29°49' W 093°59'0 0.0
2018-Feb-21 20:00N 29°49' W 093°59'0 0.0
2018-Feb-21 19:30N 29°49' W 093°59'0 0.0
2018-Feb-21 18:59N 29°49' W 093°59'0 0.0
2018-Feb-21 18:30N 29°49' W 093°59'0 0.0
2018-Feb-21 18:00N 29°49' W 093°59'0 0.0
2018-Feb-21 17:29N 29°49' W 093°59'0 0.0
2018-Feb-21 17:00N 29°49' W 093°59'0 0.0
2018-Feb-21 16:30N 29°49' W 093°59'0 0.0
2018-Feb-21 15:59N 29°49' W 093°59'0 0.0
2018-Feb-21 15:28N 29°49' W 093°59'0 0.0
2018-Feb-21 15:00N 29°49' W 093°59'0 0.0
2018-Feb-21 14:30N 29°49' W 093°59'0 0.0
2018-Feb-21 14:00N 29°49' W 093°59'0 0.0
2018-Feb-21 13:30N 29°49' W 093°59'0 0.0
2018-Feb-21 12:59N 29°49' W 093°59'0 0.0
2018-Feb-21 12:30N 29°49' W 093°59'0 0.0
2018-Feb-21 12:00N 29°49' W 093°59'0 0.0
2018-Feb-21 11:30N 29°49' W 093°59'0 0.0
2018-Feb-21 11:00N 29°49' W 093°59'0 0.0
2018-Feb-21 10:30N 29°49' W 093°59'0 0.0
2018-Feb-21 10:00N 29°49' W 093°59'0 0.0
2018-Feb-21 09:30N 29°49' W 093°59'0 0.0
2018-Feb-21 09:00N 29°49' W 093°59'0 0.0
2018-Feb-21 08:30N 29°49' W 093°59'0 0.0
2018-Feb-21 08:00N 29°49' W 093°59'0 0.0
2018-Feb-21 07:30N 29°49' W 093°59'0 0.0
2018-Feb-21 07:00N 29°49' W 093°59'0 0.0
2018-Feb-21 06:30N 29°49' W 093°59'0 0.0
2018-Feb-21 06:00N 29°49' W 093°59'0 0.0
2018-Feb-21 05:30N 29°49' W 093°59'0 0.0
2018-Feb-21 05:00N 29°49' W 093°59'0 0.0
2018-Feb-21 04:30N 29°49' W 093°59'0 0.0
2018-Feb-21 04:00N 29°49' W 093°59'0 0.0
2018-Feb-21 03:30N 29°49' W 093°59'0 0.0
2018-Feb-21 03:00N 29°49' W 093°59'0 0.0
2018-Feb-21 02:30N 29°49' W 093°59'0 0.0
2018-Feb-21 02:00N 29°49' W 093°59'0 0.0
2018-Feb-21 01:30N 29°49' W 093°59'0 0.0
2018-Feb-21 00:59N 29°49' W 093°59'0 0.0
2018-Feb-21 00:30N 29°49' W 093°59'0 0.0
2018-Feb-21 00:00N 29°49' W 093°59'0 0.0
2018-Feb-20 23:30N 29°49' W 093°59'0 0.0
2018-Feb-20 23:00N 29°49' W 093°59'0 0.0
2018-Feb-20 22:29N 29°49' W 093°59'0 0.0
2018-Feb-20 22:00N 29°49' W 093°59'1 2.3
2018-Feb-20 21:30N 29°50' W 093°58'0 0.0
2018-Feb-20 21:00N 29°50' W 093°58'0 0.0
2018-Feb-20 20:30N 29°50' W 093°58'0 0.0
2018-Feb-20 20:00N 29°50' W 093°58'0 0.0
2018-Feb-20 19:30N 29°50' W 093°58'0 0.0
2018-Feb-20 19:00N 29°50' W 093°58'0 0.2
2018-Feb-20 18:30N 29°50' W 093°58'1 2.2
2018-Feb-20 17:59N 29°49' W 093°59'0 0.0
2018-Feb-20 17:30N 29°49' W 093°59'0 0.0
2018-Feb-20 17:00N 29°49' W 093°59'0 0.0
2018-Feb-20 16:30N 29°49' W 093°59'0 0.0
2018-Feb-20 16:00N 29°49' W 093°59'0 0.0
2018-Feb-20 15:30N 29°49' W 093°59'0 0.0
2018-Feb-20 15:00N 29°49' W 093°59'0 0.0
2018-Feb-20 14:30N 29°49' W 093°59'0 0.0
2018-Feb-20 14:00N 29°49' W 093°59'0 0.0
2018-Feb-20 13:30N 29°49' W 093°59'0 0.0
2018-Feb-20 13:00N 29°49' W 093°59'0 0.0
2018-Feb-20 12:30N 29°49' W 093°59'0 0.0
2018-Feb-20 12:00N 29°49' W 093°59'0 0.0
2018-Feb-20 11:30N 29°49' W 093°59'0 0.0
2018-Feb-20 11:00N 29°49' W 093°59'0 0.0
2018-Feb-20 10:30N 29°49' W 093°59'0 0.0
2018-Feb-20 10:00N 29°49' W 093°59'0 0.0
2018-Feb-20 09:30N 29°49' W 093°59'0 0.0
2018-Feb-20 09:00N 29°49' W 093°59'0 0.0
2018-Feb-20 08:30N 29°49' W 093°59'0 0.0
2018-Feb-20 08:00N 29°49' W 093°59'0 0.0
2018-Feb-20 07:30N 29°49' W 093°59'0 0.0
2018-Feb-20 07:00N 29°49' W 093°59'0 0.0
2018-Feb-20 06:30N 29°49' W 093°59'0 0.0
2018-Feb-20 06:01N 29°49' W 093°59'0 0.0
2018-Feb-20 05:30N 29°49' W 093°59'0 0.0
2018-Feb-20 05:00N 29°49' W 093°59'0 0.0
2018-Feb-20 04:30N 29°49' W 093°59'0 0.0
2018-Feb-20 04:00N 29°49' W 093°59'0 0.0
2018-Feb-20 03:30N 29°49' W 093°59'0 0.0
2018-Feb-20 03:00N 29°49' W 093°59'0 0.0
2018-Feb-20 02:30N 29°49' W 093°59'0 0.0
2018-Feb-20 02:00N 29°49' W 093°59'0 0.0
2018-Feb-20 01:30N 29°49' W 093°59'0 0.0
2018-Feb-20 01:00N 29°49' W 093°59'0 0.0
2018-Feb-20 00:30N 29°49' W 093°59'0 0.0
2018-Feb-20 00:00N 29°49' W 093°59'0 0.0
2018-Feb-19 23:30N 29°49' W 093°59'0 0.0
2018-Feb-19 23:00N 29°49' W 093°59'0 0.0
2018-Feb-19 22:29N 29°49' W 093°59'0 0.0
2018-Feb-19 22:00N 29°49' W 093°59'0 0.0
2018-Feb-19 21:30N 29°49' W 093°59'0 0.0
2018-Feb-19 21:00N 29°49' W 093°59'0 0.0
2018-Feb-19 20:30N 29°49' W 093°59'0 0.0
2018-Feb-19 19:59N 29°49' W 093°59'0 0.0
2018-Feb-19 19:30N 29°49' W 093°59'0 0.0
2018-Feb-19 19:00N 29°49' W 093°59'0 0.0
2018-Feb-19 18:30N 29°49' W 093°59'0 0.0
2018-Feb-19 18:00N 29°49' W 093°59'0 0.0
2018-Feb-19 17:30N 29°49' W 093°59'0 0.0
2018-Feb-19 16:58N 29°49' W 093°59'0 0.0
2018-Feb-19 16:30N 29°49' W 093°59'0 0.0
2018-Feb-19 15:59N 29°49' W 093°59'0 0.0
2018-Feb-19 15:29N 29°49' W 093°59'0 0.0
2018-Feb-19 15:00N 29°49' W 093°59'0 0.0
2018-Feb-19 14:30N 29°49' W 093°59'0 0.0
2018-Feb-19 14:00N 29°49' W 093°59'0 0.0
2018-Feb-19 13:30N 29°49' W 093°59'0 0.0
2018-Feb-19 13:00N 29°49' W 093°59'0 0.0
2018-Feb-19 12:30N 29°49' W 093°59'0 0.0
2018-Feb-19 12:00N 29°49' W 093°59'0 0.0
2018-Feb-19 11:30N 29°49' W 093°59'0 0.0
2018-Feb-19 11:00N 29°49' W 093°59'0 0.0
2018-Feb-19 10:30N 29°49' W 093°59'0 0.0
2018-Feb-19 10:00N 29°49' W 093°59'0 0.0
2018-Feb-19 09:29N 29°49' W 093°59'0 0.0
2018-Feb-19 09:00N 29°49' W 093°59'0 0.0
2018-Feb-19 08:30N 29°49' W 093°59'0 0.0
2018-Feb-19 08:00N 29°49' W 093°59'0 0.0
2018-Feb-19 07:30N 29°49' W 093°59'0 0.0
2018-Feb-19 07:00N 29°49' W 093°59'0 0.0
2018-Feb-19 06:30N 29°49' W 093°59'0 0.0
2018-Feb-19 06:00N 29°49' W 093°59'0 0.0
2018-Feb-19 05:30N 29°49' W 093°59'0 0.0
2018-Feb-19 04:59N 29°49' W 093°59'0 0.0
2018-Feb-19 04:30N 29°49' W 093°59'0 0.0
2018-Feb-19 04:00N 29°49' W 093°59'0 0.0
2018-Feb-19 03:30N 29°49' W 093°59'0 0.0
2018-Feb-19 03:00N 29°49' W 093°59'0 0.0
2018-Feb-19 02:30N 29°49' W 093°59'0 0.0
2018-Feb-19 02:00N 29°49' W 093°59'0 0.0
2018-Feb-19 01:30N 29°49' W 093°59'0 0.0
2018-Feb-19 00:59N 29°49' W 093°59'0 0.0
2018-Feb-19 00:30N 29°49' W 093°59'0 0.0
2018-Feb-19 00:00N 29°49' W 093°59'0 0.0
2018-Feb-18 23:30N 29°49' W 093°59'0 0.0
2018-Feb-18 23:00N 29°49' W 093°59'0 0.0
2018-Feb-18 22:30N 29°49' W 093°59'0 0.0
2018-Feb-18 22:00N 29°49' W 093°59'0 0.0
2018-Feb-18 21:30N 29°49' W 093°59'0 0.0
2018-Feb-18 21:00N 29°49' W 093°59'0 0.0
2018-Feb-18 20:30N 29°49' W 093°59'0 0.0
2018-Feb-18 19:59N 29°49' W 093°59'0 0.0
2018-Feb-18 19:28N 29°49' W 093°59'0 0.0
2018-Feb-18 19:00N 29°49' W 093°59'0 0.0
2018-Feb-18 18:30N 29°49' W 093°59'0 0.0
2018-Feb-18 18:00N 29°49' W 093°59'0 0.0
2018-Feb-18 17:30N 29°49' W 093°59'0 0.0
2018-Feb-18 17:00N 29°49' W 093°59'0 0.0
2018-Feb-18 16:29N 29°49' W 093°59'0 0.0
2018-Feb-18 16:00N 29°49' W 093°59'0 0.1
2018-Feb-18 15:30N 29°49' W 093°59'0 0.8
2018-Feb-18 15:00N 29°49' W 093°59'0 0.1
2018-Feb-18 14:30N 29°49' W 093°59'0 0.1
2018-Feb-18 14:00N 29°49' W 093°59'0 0.0
2018-Feb-18 13:30N 29°49' W 093°59'0 0.0
2018-Feb-18 13:00N 29°49' W 093°59'0 0.0
2018-Feb-18 12:30N 29°49' W 093°59'0 0.0
2018-Feb-18 12:00N 29°49' W 093°59'0 0.0
2018-Feb-18 11:30N 29°49' W 093°59'0 0.0
2018-Feb-18 11:00N 29°49' W 093°59'0 0.0
2018-Feb-18 10:30N 29°49' W 093°59'0 0.0
2018-Feb-18 10:00N 29°49' W 093°59'0 0.0
2018-Feb-18 09:30N 29°49' W 093°59'1 3.0
2018-Feb-18 09:00N 29°48' W 094°00'2 3.3
2018-Feb-18 08:30N 29°47' W 094°02'2 4.1
2018-Feb-18 08:00N 29°45' W 094°04'2 5.0
2018-Feb-18 07:30N 29°44' W 094°06'3 5.1
2018-Feb-18 07:00N 29°42' W 094°08'2 4.4
2018-Feb-18 06:30N 29°41' W 094°10'2 5.0
2018-Feb-18 06:00N 29°40' W 094°13'2 4.6
2018-Feb-18 05:30N 29°39' W 094°15'2 3.9
2018-Feb-18 05:00N 29°38' W 094°17'2 4.2
2018-Feb-18 04:30N 29°37' W 094°20'2 1.9
2018-Feb-18 03:13N 29°36' W 094°22'0 0.0
2018-Feb-18 02:44N 29°36' W 094°22'0 0.0
2018-Feb-18 02:27N 29°36' W 094°22'0 0.0
2018-Feb-18 01:58N 29°36' W 094°22'0 0.0
2018-Feb-18 01:30N 29°36' W 094°22'0 0.0
2018-Feb-18 01:00N 29°36' W 094°22'0 0.0
2018-Feb-18 00:29N 29°36' W 094°22'1 1.1
2018-Feb-17 23:58N 29°36' W 094°23'3 3.5
2018-Feb-17 23:15N 29°34' W 094°25'2 4.8
2018-Feb-17 22:51N 29°34' W 094°27'2 4.9
2018-Feb-17 22:28N 29°33' W 094°28'2 3.5
2018-Feb-17 21:54N 29°31' W 094°30'2 4.4
2018-Feb-17 21:25N 29°30' W 094°32'21 1.4
2018-Feb-17 06:18N 29°22' W 094°55'0 0.0
2018-Feb-17 06:00N 29°22' W 094°55'0 0.0
2018-Feb-17 05:22N 29°22' W 094°55'0 0.0
2018-Feb-17 04:48N 29°22' W 094°55'0 0.0
2018-Feb-17 04:29N 29°22' W 094°55'0 0.0
2018-Feb-17 04:00N 29°22' W 094°55'0 0.0
2018-Feb-17 03:22N 29°22' W 094°55'0 0.0
2018-Feb-17 03:00N 29°22' W 094°55'0 0.0
2018-Feb-17 02:27N 29°22' W 094°55'0 0.0
2018-Feb-17 01:59N 29°22' W 094°55'0 0.0
2018-Feb-17 01:30N 29°22' W 094°55'0 0.0
2018-Feb-17 00:49N 29°22' W 094°55'1 0.1
2018-Feb-16 08:23N 29°22' W 094°54'0 0.0
2018-Feb-16 07:48N 29°22' W 094°54'0 0.0
2018-Feb-16 07:27N 29°22' W 094°54'0 0.0
2018-Feb-16 05:53N 29°22' W 094°54'0 0.0
2018-Feb-16 04:19N 29°22' W 094°54'  
Track history (hours):
 
Tides and Currents Weather Stations Pressure Air Temp Water Temp Dewpoint Dewpoint Depression Visibility Wind Speed Wind Dir Waves Ship Positions

James Davison

Owner: Genesis Marine, LLC, Houston, TX. More information available from US FCC via Universal Licensing System and Coast Guard Vessel Documentation Center.

Last reported at 2018-Feb-25 23:42 UTC. Time now 2018-Feb-26 01:58 UTC.
Position N 29°47' W 095°04'.

Length 26 m; draft 3 m.

Type: Other ship. MMSI: 367505050.

Date/timePositionNaut miles runAvg speedWind from/ knotsBaromVisibWave heightAir tempDewpointWater temp
2018-Feb-25 23:42N 29°47' W 095°04'2 1.2
2018-Feb-25 22:20N 29°46' W 095°05'1 0.3
2018-Feb-25 19:53N 29°46' W 095°06'2 1.0
2018-Feb-25 17:28N 29°44' W 095°03'2 5.2
2018-Feb-25 16:59N 29°43' W 095°01'3 5.6
2018-Feb-25 16:30N 29°41' W 094°59'4 7.1
2018-Feb-25 16:01N 29°38' W 094°58'4 7.5
2018-Feb-25 15:30N 29°34' W 094°56'4 7.4
2018-Feb-25 15:00N 29°31' W 094°53'25 1.8
2018-Feb-25 00:38N 29°36' W 094°24'6 1.8
2018-Feb-24 21:33N 29°38' W 094°19'0 0.3
2018-Feb-24 21:28N 29°38' W 094°19'0 0.1
2018-Feb-24 21:00N 29°38' W 094°18'0 0.2
2018-Feb-24 20:30N 29°38' W 094°18'1 1.5
2018-Feb-24 20:00N 29°38' W 094°18'0 0.1
2018-Feb-24 18:23N 29°38' W 094°17'1 2.8
2018-Feb-24 17:58N 29°39' W 094°16'1 0.9
2018-Feb-24 17:20N 29°39' W 094°16'0 0.0
2018-Feb-24 16:59N 29°39' W 094°16'2 3.5
2018-Feb-24 16:29N 29°40' W 094°14'3 5.7
2018-Feb-24 16:00N 29°41' W 094°11'3 5.3
2018-Feb-24 15:30N 29°42' W 094°08'3 5.7
2018-Feb-24 15:00N 29°44' W 094°06'3 5.7
2018-Feb-24 14:30N 29°46' W 094°03'3 5.7
2018-Feb-24 14:00N 29°48' W 094°01'2 4.9
2018-Feb-24 13:30N 29°49' W 093°59'1 2.1
2018-Feb-24 13:00N 29°50' W 093°58'1 1.0
2018-Feb-24 12:30N 29°51' W 093°58'0 0.1
2018-Feb-24 12:00N 29°51' W 093°58'0 0.1
2018-Feb-24 11:30N 29°51' W 093°58'0 0.0
2018-Feb-24 11:00N 29°51' W 093°58'0 0.0
2018-Feb-24 10:30N 29°51' W 093°58'0 0.0
2018-Feb-24 10:00N 29°51' W 093°58'0 0.0
2018-Feb-24 09:30N 29°51' W 093°58'0 0.0
2018-Feb-24 09:00N 29°51' W 093°58'0 0.0
2018-Feb-24 08:30N 29°51' W 093°58'0 0.0
2018-Feb-24 08:00N 29°51' W 093°58'0 0.0
2018-Feb-24 07:30N 29°51' W 093°58'0 0.0
2018-Feb-24 07:00N 29°51' W 093°58'0 0.0
2018-Feb-24 06:30N 29°51' W 093°58'0 0.0
2018-Feb-24 06:00N 29°51' W 093°58'0 0.0
2018-Feb-24 05:30N 29°51' W 093°58'0 0.0
2018-Feb-24 05:00N 29°51' W 093°58'0 0.0
2018-Feb-24 04:30N 29°51' W 093°58'0 0.0
2018-Feb-24 04:00N 29°51' W 093°58'0 0.0
2018-Feb-24 03:30N 29°51' W 093°58'0 0.0
2018-Feb-24 03:00N 29°51' W 093°58'0 0.0
2018-Feb-24 02:30N 29°51' W 093°58'0 0.0
2018-Feb-24 01:56N 29°51' W 093°58'0 0.0
2018-Feb-24 01:30N 29°51' W 093°58'0 0.0
2018-Feb-24 01:00N 29°51' W 093°58'0 0.0
2018-Feb-24 00:29N 29°51' W 093°58'0 0.0
2018-Feb-24 00:00N 29°51' W 093°58'0 0.0
2018-Feb-23 23:30N 29°51' W 093°58'0 0.0
2018-Feb-23 23:00N 29°51' W 093°58'0 0.0
2018-Feb-23 22:30N 29°51' W 093°58'0 0.0
2018-Feb-23 22:00N 29°51' W 093°58'0 0.0
2018-Feb-23 21:30N 29°51' W 093°58'0 0.0
2018-Feb-23 21:00N 29°51' W 093°58'0 0.0
2018-Feb-23 20:30N 29°51' W 093°58'0 0.0
2018-Feb-23 20:00N 29°51' W 093°58'0 0.0
2018-Feb-23 19:30N 29°51' W 093°58'0 0.0
2018-Feb-23 19:00N 29°51' W 093°58'0 0.0
2018-Feb-23 18:29N 29°51' W 093°58'0 0.0
2018-Feb-23 18:00N 29°51' W 093°58'0 0.0
2018-Feb-23 17:30N 29°51' W 093°58'0 0.0
2018-Feb-23 17:00N 29°51' W 093°58'0 0.0
2018-Feb-23 16:30N 29°51' W 093°58'0 0.0
2018-Feb-23 16:00N 29°51' W 093°58'0 0.0
2018-Feb-23 15:30N 29°51' W 093°58'0 0.0
2018-Feb-23 15:00N 29°51' W 093°58'0 0.0
2018-Feb-23 14:30N 29°51' W 093°58'0 0.0
2018-Feb-23 14:00N 29°51' W 093°58'0 0.0
2018-Feb-23 13:30N 29°51' W 093°58'0 0.0
2018-Feb-23 13:00N 29°51' W 093°58'0 0.0
2018-Feb-23 12:30N 29°51' W 093°58'0 0.0
2018-Feb-23 12:00N 29°51' W 093°58'0 0.0
2018-Feb-23 11:30N 29°51' W 093°58'0 0.0
2018-Feb-23 11:00N 29°51' W 093°58'0 0.0
2018-Feb-23 10:30N 29°51' W 093°58'0 0.0
2018-Feb-23 10:00N 29°51' W 093°58'0 0.0
2018-Feb-23 09:30N 29°51' W 093°58'0 0.0
2018-Feb-23 09:00N 29°51' W 093°58'0 0.0
2018-Feb-23 08:30N 29°51' W 093°58'0 0.0
2018-Feb-23 08:00N 29°51' W 093°58'0 0.0
2018-Feb-23 07:30N 29°51' W 093°58'0 0.0
2018-Feb-23 07:00N 29°51' W 093°58'0 0.0
2018-Feb-23 06:30N 29°51' W 093°58'0 0.0
2018-Feb-23 06:00N 29°51' W 093°58'0 0.0
2018-Feb-23 05:30N 29°51' W 093°58'0 0.0
2018-Feb-23 05:00N 29°51' W 093°58'0 0.0
2018-Feb-23 04:30N 29°51' W 093°58'0 0.0
2018-Feb-23 04:00N 29°51' W 093°58'0 0.0
2018-Feb-23 03:30N 29°51' W 093°58'0 0.0
2018-Feb-23 03:00N 29°51' W 093°58'0 0.0
2018-Feb-23 02:30N 29°51' W 093°58'0 0.0
2018-Feb-23 02:00N 29°51' W 093°58'0 0.0
2018-Feb-23 01:30N 29°51' W 093°58'0 0.0
2018-Feb-23 01:00N 29°51' W 093°58'0 0.0
2018-Feb-23 00:30N 29°51' W 093°58'0 0.0
2018-Feb-23 00:00N 29°51' W 093°58'0 0.0
2018-Feb-22 23:30N 29°51' W 093°58'0 0.0
2018-Feb-22 23:00N 29°51' W 093°58'0 0.0
2018-Feb-22 22:30N 29°51' W 093°58'0 0.0
2018-Feb-22 22:00N 29°51' W 093°58'0 0.0
2018-Feb-22 21:30N 29°51' W 093°58'0 0.0
2018-Feb-22 21:00N 29°51' W 093°58'0 0.0
2018-Feb-22 20:30N 29°51' W 093°58'0 0.0
2018-Feb-22 20:00N 29°51' W 093°58'0 0.0
2018-Feb-22 19:30N 29°51' W 093°58'0 0.0
2018-Feb-22 19:00N 29°51' W 093°58'0 0.0
2018-Feb-22 18:30N 29°51' W 093°58'0 0.0
2018-Feb-22 18:00N 29°51' W 093°58'0 0.0
2018-Feb-22 17:30N 29°51' W 093°58'0 0.0
2018-Feb-22 17:00N 29°51' W 093°58'0 0.0
2018-Feb-22 16:30N 29°51' W 093°58'0 0.0
2018-Feb-22 16:00N 29°51' W 093°58'0 0.0
2018-Feb-22 15:30N 29°51' W 093°58'0 0.0
2018-Feb-22 15:00N 29°51' W 093°58'0 0.0
2018-Feb-22 14:30N 29°51' W 093°58'1 2.5
2018-Feb-22 14:01N 29°49' W 093°58'1 1.7
2018-Feb-22 13:28N 29°49' W 093°59'0 0.0
2018-Feb-22 13:00N 29°49' W 093°59'0 0.0
2018-Feb-22 12:30N 29°49' W 093°59'0 0.0
2018-Feb-22 12:00N 29°49' W 093°59'0 0.0
2018-Feb-22 11:30N 29°49' W 093°59'0 0.0
2018-Feb-22 11:00N 29°49' W 093°59'0 0.0
2018-Feb-22 10:30N 29°49' W 093°59'0 0.0
2018-Feb-22 10:00N 29°49' W 093°59'0 0.0
2018-Feb-22 09:29N 29°49' W 093°59'0 0.0
2018-Feb-22 09:00N 29°49' W 093°59'0 0.0
2018-Feb-22 08:30N 29°49' W 093°59'0 0.0
2018-Feb-22 08:00N 29°49' W 093°59'0 0.0
2018-Feb-22 07:30N 29°49' W 093°59'0 0.0
2018-Feb-22 07:00N 29°49' W 093°59'0 0.0
2018-Feb-22 06:30N 29°49' W 093°59'0 0.0
2018-Feb-22 06:00N 29°49' W 093°59'0 0.0
2018-Feb-22 05:30N 29°49' W 093°59'0 0.0
2018-Feb-22 05:00N 29°49' W 093°59'0 0.0
2018-Feb-22 04:30N 29°49' W 093°59'0 0.0
2018-Feb-22 04:00N 29°49' W 093°59'0 0.0
2018-Feb-22 03:30N 29°49' W 093°59'0 0.0
2018-Feb-22 03:00N 29°49' W 093°59'0 0.0
2018-Feb-22 02:28N 29°49' W 093°59'0 0.0
2018-Feb-22 02:00N 29°49' W 093°59'0 0.0
2018-Feb-22 01:30N 29°49' W 093°59'0 0.0
2018-Feb-22 00:59N 29°49' W 093°59'0 0.0
2018-Feb-22 00:30N 29°49' W 093°59'0 0.0
2018-Feb-22 00:00N 29°49' W 093°59'0 0.0
2018-Feb-21 23:30N 29°49' W 093°59'0 0.0
2018-Feb-21 23:00N 29°49' W 093°59'0 0.0
2018-Feb-21 22:29N 29°49' W 093°59'0 0.0
2018-Feb-21 22:00N 29°49' W 093°59'0 0.0
2018-Feb-21 21:30N 29°49' W 093°59'0 0.0
2018-Feb-21 21:00N 29°49' W 093°59'0 0.0
2018-Feb-21 20:30N 29°49' W 093°59'0 0.0
2018-Feb-21 20:00N 29°49' W 093°59'0 0.0
2018-Feb-21 19:30N 29°49' W 093°59'0 0.0
2018-Feb-21 18:59N 29°49' W 093°59'0 0.0
2018-Feb-21 18:30N 29°49' W 093°59'0 0.0
2018-Feb-21 18:00N 29°49' W 093°59'0 0.0
2018-Feb-21 17:29N 29°49' W 093°59'0 0.0
2018-Feb-21 17:00N 29°49' W 093°59'0 0.0
2018-Feb-21 16:30N 29°49' W 093°59'0 0.0
2018-Feb-21 15:59N 29°49' W 093°59'0 0.0
2018-Feb-21 15:28N 29°49' W 093°59'0 0.0
2018-Feb-21 15:00N 29°49' W 093°59'0 0.0
2018-Feb-21 14:30N 29°49' W 093°59'0 0.0
2018-Feb-21 14:00N 29°49' W 093°59'0 0.0
2018-Feb-21 13:30N 29°49' W 093°59'0 0.0
2018-Feb-21 12:59N 29°49' W 093°59'0 0.0
2018-Feb-21 12:30N 29°49' W 093°59'0 0.0
2018-Feb-21 12:00N 29°49' W 093°59'0 0.0
2018-Feb-21 11:30N 29°49' W 093°59'0 0.0
2018-Feb-21 11:00N 29°49' W 093°59'0 0.0
2018-Feb-21 10:30N 29°49' W 093°59'0 0.0
2018-Feb-21 10:00N 29°49' W 093°59'0 0.0
2018-Feb-21 09:30N 29°49' W 093°59'0 0.0
2018-Feb-21 09:00N 29°49' W 093°59'0 0.0
2018-Feb-21 08:30N 29°49' W 093°59'0 0.0
2018-Feb-21 08:00N 29°49' W 093°59'0 0.0
2018-Feb-21 07:30N 29°49' W 093°59'0 0.0
2018-Feb-21 07:00N 29°49' W 093°59'0 0.0
2018-Feb-21 06:30N 29°49' W 093°59'0 0.0
2018-Feb-21 06:00N 29°49' W 093°59'0 0.0
2018-Feb-21 05:30N 29°49' W 093°59'0 0.0
2018-Feb-21 05:00N 29°49' W 093°59'0 0.0
2018-Feb-21 04:30N 29°49' W 093°59'0 0.0
2018-Feb-21 04:00N 29°49' W 093°59'0 0.0
2018-Feb-21 03:30N 29°49' W 093°59'0 0.0
2018-Feb-21 03:00N 29°49' W 093°59'0 0.0
2018-Feb-21 02:30N 29°49' W 093°59'0 0.0
2018-Feb-21 02:00N 29°49' W 093°59'0 0.0
2018-Feb-21 01:30N 29°49' W 093°59'0 0.0
2018-Feb-21 00:59N 29°49' W 093°59'0 0.0
2018-Feb-21 00:30N 29°49' W 093°59'0 0.0
2018-Feb-21 00:00N 29°49' W 093°59'0 0.0
2018-Feb-20 23:30N 29°49' W 093°59'0 0.0
2018-Feb-20 23:00N 29°49' W 093°59'0 0.0
2018-Feb-20 22:29N 29°49' W 093°59'0 0.0
2018-Feb-20 22:00N 29°49' W 093°59'1 2.3
2018-Feb-20 21:30N 29°50' W 093°58'0 0.0
2018-Feb-20 21:00N 29°50' W 093°58'0 0.0
2018-Feb-20 20:30N 29°50' W 093°58'0 0.0
2018-Feb-20 20:00N 29°50' W 093°58'0 0.0
2018-Feb-20 19:30N 29°50' W 093°58'0 0.0
2018-Feb-20 19:00N 29°50' W 093°58'0 0.2
2018-Feb-20 18:30N 29°50' W 093°58'1 2.2
2018-Feb-20 17:59N 29°49' W 093°59'0 0.0
2018-Feb-20 17:30N 29°49' W 093°59'0 0.0
2018-Feb-20 17:00N 29°49' W 093°59'0 0.0
2018-Feb-20 16:30N 29°49' W 093°59'0 0.0
2018-Feb-20 16:00N 29°49' W 093°59'0 0.0
2018-Feb-20 15:30N 29°49' W 093°59'0 0.0
2018-Feb-20 15:00N 29°49' W 093°59'0 0.0
2018-Feb-20 14:30N 29°49' W 093°59'0 0.0
2018-Feb-20 14:00N 29°49' W 093°59'0 0.0
2018-Feb-20 13:30N 29°49' W 093°59'0 0.0
2018-Feb-20 13:00N 29°49' W 093°59'0 0.0
2018-Feb-20 12:30N 29°49' W 093°59'0 0.0
2018-Feb-20 12:00N 29°49' W 093°59'0 0.0
2018-Feb-20 11:30N 29°49' W 093°59'0 0.0
2018-Feb-20 11:00N 29°49' W 093°59'0 0.0
2018-Feb-20 10:30N 29°49' W 093°59'0 0.0
2018-Feb-20 10:00N 29°49' W 093°59'0 0.0
2018-Feb-20 09:30N 29°49' W 093°59'0 0.0
2018-Feb-20 09:00N 29°49' W 093°59'0 0.0
2018-Feb-20 08:30N 29°49' W 093°59'0 0.0
2018-Feb-20 08:00N 29°49' W 093°59'0 0.0
2018-Feb-20 07:30N 29°49' W 093°59'0 0.0
2018-Feb-20 07:00N 29°49' W 093°59'0 0.0
2018-Feb-20 06:30N 29°49' W 093°59'0 0.0
2018-Feb-20 06:01N 29°49' W 093°59'0 0.0
2018-Feb-20 05:30N 29°49' W 093°59'0 0.0
2018-Feb-20 05:00N 29°49' W 093°59'0 0.0
2018-Feb-20 04:30N 29°49' W 093°59'0 0.0
2018-Feb-20 04:00N 29°49' W 093°59'0 0.0
2018-Feb-20 03:30N 29°49' W 093°59'0 0.0
2018-Feb-20 03:00N 29°49' W 093°59'0 0.0
2018-Feb-20 02:30N 29°49' W 093°59'0 0.0
2018-Feb-20 02:00N 29°49' W 093°59'0 0.0
2018-Feb-20 01:30N 29°49' W 093°59'0 0.0
2018-Feb-20 01:00N 29°49' W 093°59'0 0.0
2018-Feb-20 00:30N 29°49' W 093°59'0 0.0
2018-Feb-20 00:00N 29°49' W 093°59'0 0.0
2018-Feb-19 23:30N 29°49' W 093°59'0 0.0
2018-Feb-19 23:00N 29°49' W 093°59'0 0.0
2018-Feb-19 22:29N 29°49' W 093°59'0 0.0
2018-Feb-19 22:00N 29°49' W 093°59'0 0.0
2018-Feb-19 21:30N 29°49' W 093°59'0 0.0
2018-Feb-19 21:00N 29°49' W 093°59'0 0.0
2018-Feb-19 20:30N 29°49' W 093°59'0 0.0
2018-Feb-19 19:59N 29°49' W 093°59'0 0.0
2018-Feb-19 19:30N 29°49' W 093°59'0 0.0
2018-Feb-19 19:00N 29°49' W 093°59'0 0.0
2018-Feb-19 18:30N 29°49' W 093°59'0 0.0
2018-Feb-19 18:00N 29°49' W 093°59'0 0.0
2018-Feb-19 17:30N 29°49' W 093°59'0 0.0
2018-Feb-19 16:58N 29°49' W 093°59'0 0.0
2018-Feb-19 16:30N 29°49' W 093°59'0 0.0
2018-Feb-19 15:59N 29°49' W 093°59'0 0.0
2018-Feb-19 15:29N 29°49' W 093°59'0 0.0
2018-Feb-19 15:00N 29°49' W 093°59'0 0.0
2018-Feb-19 14:30N 29°49' W 093°59'0 0.0
2018-Feb-19 14:00N 29°49' W 093°59'0 0.0
2018-Feb-19 13:30N 29°49' W 093°59'0 0.0
2018-Feb-19 13:00N 29°49' W 093°59'0 0.0
2018-Feb-19 12:30N 29°49' W 093°59'0 0.0
2018-Feb-19 12:00N 29°49' W 093°59'0 0.0
2018-Feb-19 11:30N 29°49' W 093°59'0 0.0
2018-Feb-19 11:00N 29°49' W 093°59'0 0.0
2018-Feb-19 10:30N 29°49' W 093°59'0 0.0
2018-Feb-19 10:00N 29°49' W 093°59'0 0.0
2018-Feb-19 09:29N 29°49' W 093°59'0 0.0
2018-Feb-19 09:00N 29°49' W 093°59'0 0.0
2018-Feb-19 08:30N 29°49' W 093°59'0 0.0
2018-Feb-19 08:00N 29°49' W 093°59'0 0.0
2018-Feb-19 07:30N 29°49' W 093°59'0 0.0
2018-Feb-19 07:00N 29°49' W 093°59'0 0.0
2018-Feb-19 06:30N 29°49' W 093°59'0 0.0
2018-Feb-19 06:00N 29°49' W 093°59'0 0.0
2018-Feb-19 05:30N 29°49' W 093°59'0 0.0
2018-Feb-19 04:59N 29°49' W 093°59'0 0.0
2018-Feb-19 04:30N 29°49' W 093°59'0 0.0
2018-Feb-19 04:00N 29°49' W 093°59'0 0.0
2018-Feb-19 03:30N 29°49' W 093°59'0 0.0
2018-Feb-19 03:00N 29°49' W 093°59'0 0.0
2018-Feb-19 02:30N 29°49' W 093°59'0 0.0
2018-Feb-19 02:00N 29°49' W 093°59'0 0.0
2018-Feb-19 01:30N 29°49' W 093°59'0 0.0
2018-Feb-19 00:59N 29°49' W 093°59'0 0.0
2018-Feb-19 00:30N 29°49' W 093°59'0 0.0
2018-Feb-19 00:00N 29°49' W 093°59'0 0.0
2018-Feb-18 23:30N 29°49' W 093°59'0 0.0
2018-Feb-18 23:00N 29°49' W 093°59'0 0.0
2018-Feb-18 22:30N 29°49' W 093°59'0 0.0
2018-Feb-18 22:00N 29°49' W 093°59'0 0.0
2018-Feb-18 21:30N 29°49' W 093°59'0 0.0
2018-Feb-18 21:00N 29°49' W 093°59'0 0.0
2018-Feb-18 20:30N 29°49' W 093°59'0 0.0
2018-Feb-18 19:59N 29°49' W 093°59'0 0.0
2018-Feb-18 19:28N 29°49' W 093°59'0 0.0
2018-Feb-18 19:00N 29°49' W 093°59'0 0.0
2018-Feb-18 18:30N 29°49' W 093°59'0 0.0
2018-Feb-18 18:00N 29°49' W 093°59'0 0.0
2018-Feb-18 17:30N 29°49' W 093°59'0 0.0
2018-Feb-18 17:00N 29°49' W 093°59'0 0.0
2018-Feb-18 16:29N 29°49' W 093°59'0 0.0
2018-Feb-18 16:00N 29°49' W 093°59'0 0.1
2018-Feb-18 15:30N 29°49' W 093°59'0 0.8
2018-Feb-18 15:00N 29°49' W 093°59'0 0.1
2018-Feb-18 14:30N 29°49' W 093°59'0 0.1
2018-Feb-18 14:00N 29°49' W 093°59'0 0.0
2018-Feb-18 13:30N 29°49' W 093°59'0 0.0
2018-Feb-18 13:00N 29°49' W 093°59'0 0.0
2018-Feb-18 12:30N 29°49' W 093°59'0 0.0
2018-Feb-18 12:00N 29°49' W 093°59'0 0.0
2018-Feb-18 11:30N 29°49' W 093°59'0 0.0
2018-Feb-18 11:00N 29°49' W 093°59'0 0.0
2018-Feb-18 10:30N 29°49' W 093°59'0 0.0
2018-Feb-18 10:00N 29°49' W 093°59'0 0.0
2018-Feb-18 09:30N 29°49' W 093°59'1 3.0
2018-Feb-18 09:00N 29°48' W 094°00'2 3.3
2018-Feb-18 08:30N 29°47' W 094°02'2 4.1
2018-Feb-18 08:00N 29°45' W 094°04'2 5.0
2018-Feb-18 07:30N 29°44' W 094°06'3 5.1
2018-Feb-18 07:00N 29°42' W 094°08'2 4.4
2018-Feb-18 06:30N 29°41' W 094°10'2 5.0
2018-Feb-18 06:00N 29°40' W 094°13'2 4.6
2018-Feb-18 05:30N 29°39' W 094°15'2 3.9
2018-Feb-18 05:00N 29°38' W 094°17'2 4.2
2018-Feb-18 04:30N 29°37' W 094°20'2 1.9
2018-Feb-18 03:13N 29°36' W 094°22'0 0.0
2018-Feb-18 02:44N 29°36' W 094°22'0 0.0
2018-Feb-18 02:27N 29°36' W 094°22'0 0.0
2018-Feb-18 01:58N 29°36' W 094°22'0 0.0
2018-Feb-18 01:30N 29°36' W 094°22'0 0.0
2018-Feb-18 01:00N 29°36' W 094°22'0 0.0
2018-Feb-18 00:29N 29°36' W 094°22'1 1.1
2018-Feb-17 23:58N 29°36' W 094°23'3 3.5
2018-Feb-17 23:15N 29°34' W 094°25'2 4.8
2018-Feb-17 22:51N 29°34' W 094°27'2 4.9
2018-Feb-17 22:28N 29°33' W 094°28'2 3.5
2018-Feb-17 21:54N 29°31' W 094°30'2 4.4
2018-Feb-17 21:25N 29°30' W 094°32'21 1.4
2018-Feb-17 06:18N 29°22' W 094°55'0 0.0
2018-Feb-17 06:00N 29°22' W 094°55'0 0.0
2018-Feb-17 05:22N 29°22' W 094°55'0 0.0
2018-Feb-17 04:48N 29°22' W 094°55'0 0.0
2018-Feb-17 04:29N 29°22' W 094°55'0 0.0
2018-Feb-17 04:00N 29°22' W 094°55'0 0.0
2018-Feb-17 03:22N 29°22' W 094°55'0 0.0
2018-Feb-17 03:00N 29°22' W 094°55'0 0.0
2018-Feb-17 02:27N 29°22' W 094°55'0 0.0
2018-Feb-17 01:59N 29°22' W 094°55'0 0.0
2018-Feb-17 01:30N 29°22' W 094°55'0 0.0
2018-Feb-17 00:49N 29°22' W 094°55'1 0.1
2018-Feb-16 08:23N 29°22' W 094°54'0 0.0
2018-Feb-16 07:48N 29°22' W 094°54'0 0.0
2018-Feb-16 07:27N 29°22' W 094°54'0 0.0
2018-Feb-16 05:53N 29°22' W 094°54'0 0.0
2018-Feb-16 04:19N 29°22' W 094°54'  

Dump ship's entire track history